sensor_id;sensor_type;location;lat;lon;timestamp;noise_LAeq;noise_LA_min;noise_LA_max;noise_LA01;noise_LA95
41518;Laerm;27249;48.094;-1.690;2023-06-10T00:02:03;49.34;41.75;58.98;;
41518;Laerm;27249;48.094;-1.690;2023-06-10T00:04:28;49.73;40.80;65.97;;
41518;Laerm;27249;48.094;-1.690;2023-06-10T00:06:54;47.94;40.89;57.38;;
41518;Laerm;27249;48.094;-1.690;2023-06-10T00:09:20;51.00;42.22;64.15;;
41518;Laerm;27249;48.094;-1.690;2023-06-10T00:11:48;46.88;41.96;58.36;;
41518;Laerm;27249;48.094;-1.690;2023-06-10T00:14:13;48.51;40.71;58.26;;
41518;Laerm;27249;48.094;-1.690;2023-06-10T00:16:38;53.64;40.80;64.78;;
41518;Laerm;27249;48.094;-1.690;2023-06-10T00:19:04;50.17;41.75;62.13;;
41518;Laerm;27249;48.094;-1.690;2023-06-10T00:21:30;48.98;42.03;58.56;;
41518;Laerm;27249;48.094;-1.690;2023-06-10T00:23:55;51.55;42.88;62.33;;
41518;Laerm;27249;48.094;-1.690;2023-06-10T00:26:21;47.86;41.46;60.36;;
41518;Laerm;27249;48.094;-1.690;2023-06-10T00:28:46;53.77;42.41;63.36;;
41518;Laerm;27249;48.094;-1.690;2023-06-10T00:31:12;50.13;41.53;63.67;;
41518;Laerm;27249;48.094;-1.690;2023-06-10T00:33:37;49.62;41.38;61.57;;
41518;Laerm;27249;48.094;-1.690;2023-06-10T00:36:02;50.98;42.41;62.45;;
41518;Laerm;27249;48.094;-1.690;2023-06-10T00:38:27;49.01;42.82;59.27;;
41518;Laerm;27249;48.094;-1.690;2023-06-10T00:40:52;49.37;42.16;60.44;;
41518;Laerm;27249;48.094;-1.690;2023-06-10T00:43:18;49.71;42.29;59.25;;
41518;Laerm;27249;48.094;-1.690;2023-06-10T00:45:43;48.25;42.41;58.08;;
41518;Laerm;27249;48.094;-1.690;2023-06-10T00:48:08;50.99;42.41;61.12;;
41518;Laerm;27249;48.094;-1.690;2023-06-10T00:50:34;51.64;41.89;70.80;;
41518;Laerm;27249;48.094;-1.690;2023-06-10T00:53:00;46.07;41.68;63.63;;
41518;Laerm;27249;48.094;-1.690;2023-06-10T00:55:25;46.47;41.68;57.90;;
41518;Laerm;27249;48.094;-1.690;2023-06-10T00:57:52;50.67;41.96;61.66;;
41518;Laerm;27249;48.094;-1.690;2023-06-10T01:00:18;46.75;41.75;60.54;;
41518;Laerm;27249;48.094;-1.690;2023-06-10T01:02:44;51.18;42.82;60.88;;
41518;Laerm;27249;48.094;-1.690;2023-06-10T01:05:09;47.04;42.59;55.68;;
41518;Laerm;27249;48.094;-1.690;2023-06-10T01:08:39;49.60;41.82;61.11;;
41518;Laerm;27249;48.094;-1.690;2023-06-10T01:13:14;47.26;42.03;59.77;;
41518;Laerm;27249;48.094;-1.690;2023-06-10T01:15:40;48.53;42.41;58.81;;
41518;Laerm;27249;48.094;-1.690;2023-06-10T01:18:08;48.60;42.88;58.75;;
41518;Laerm;27249;48.094;-1.690;2023-06-10T01:20:35;51.03;42.41;63.50;;
41518;Laerm;27249;48.094;-1.690;2023-06-10T01:23:02;47.50;41.96;60.72;;
41518;Laerm;27249;48.094;-1.690;2023-06-10T01:25:29;48.84;41.30;64.73;;
41518;Laerm;27249;48.094;-1.690;2023-06-10T01:30:30;47.56;42.16;57.63;;
41518;Laerm;27249;48.094;-1.690;2023-06-10T01:32:58;46.27;41.96;58.03;;
41518;Laerm;27249;48.094;-1.690;2023-06-10T01:35:25;50.97;41.38;65.53;;
41518;Laerm;27249;48.094;-1.690;2023-06-10T01:37:51;46.13;41.46;54.76;;
41518;Laerm;27249;48.094;-1.690;2023-06-10T01:40:18;52.15;41.61;66.34;;
41518;Laerm;27249;48.094;-1.690;2023-06-10T01:42:43;45.28;41.46;53.04;;
41518;Laerm;27249;48.094;-1.690;2023-06-10T01:45:08;44.56;41.22;53.49;;
41518;Laerm;27249;48.094;-1.690;2023-06-10T01:47:34;46.67;41.22;60.20;;
41518;Laerm;27249;48.094;-1.690;2023-06-10T01:49:59;48.92;41.22;59.45;;
41518;Laerm;27249;48.094;-1.690;2023-06-10T01:52:24;46.71;41.38;58.26;;
41518;Laerm;27249;48.094;-1.690;2023-06-10T01:54:50;52.63;41.14;66.04;;
41518;Laerm;27249;48.094;-1.690;2023-06-10T01:57:15;50.64;42.22;62.04;;
41518;Laerm;27249;48.094;-1.690;2023-06-10T01:59:40;46.30;40.71;57.78;;
41518;Laerm;27249;48.094;-1.690;2023-06-10T02:02:09;47.77;41.14;59.45;;
41518;Laerm;27249;48.094;-1.690;2023-06-10T02:04:34;49.04;41.22;58.89;;
41518;Laerm;27249;48.094;-1.690;2023-06-10T02:06:59;49.52;41.61;61.40;;
41518;Laerm;27249;48.094;-1.690;2023-06-10T02:09:29;43.60;41.38;45.39;;
41518;Laerm;27249;48.094;-1.690;2023-06-10T02:11:55;48.79;41.68;60.77;;
41518;Laerm;27249;48.094;-1.690;2023-06-10T02:14:20;46.76;41.06;59.77;;
41518;Laerm;27249;48.094;-1.690;2023-06-10T02:16:45;47.24;40.80;58.71;;
41518;Laerm;27249;48.094;-1.690;2023-06-10T02:19:12;51.59;42.03;66.86;;
41518;Laerm;27249;48.094;-1.690;2023-06-10T02:21:37;44.96;40.98;56.20;;
41518;Laerm;27249;48.094;-1.690;2023-06-10T02:24:02;49.38;41.53;61.15;;
41518;Laerm;27249;48.094;-1.690;2023-06-10T02:26:28;51.22;41.46;61.99;;
41518;Laerm;27249;48.094;-1.690;2023-06-10T02:28:53;50.25;41.53;64.99;;
41518;Laerm;27249;48.094;-1.690;2023-06-10T02:31:18;47.27;42.09;56.80;;
41518;Laerm;27249;48.094;-1.690;2023-06-10T02:33:50;46.43;41.82;56.58;;
41518;Laerm;27249;48.094;-1.690;2023-06-10T02:36:15;46.43;42.09;54.57;;
41518;Laerm;27249;48.094;-1.690;2023-06-10T02:38:41;45.46;41.75;58.95;;
41518;Laerm;27249;48.094;-1.690;2023-06-10T02:41:06;51.90;41.96;63.02;;
41518;Laerm;27249;48.094;-1.690;2023-06-10T02:43:32;47.84;42.22;58.02;;
41518;Laerm;27249;48.094;-1.690;2023-06-10T02:45:57;49.62;41.61;60.57;;
41518;Laerm;27249;48.094;-1.690;2023-06-10T02:48:25;49.08;41.75;59.51;;
41518;Laerm;27249;48.094;-1.690;2023-06-10T02:50:51;49.96;42.35;62.85;;
41518;Laerm;27249;48.094;-1.690;2023-06-10T02:53:16;51.59;43.39;63.30;;
41518;Laerm;27249;48.094;-1.690;2023-06-10T02:55:42;48.65;42.35;59.71;;
41518;Laerm;27249;48.094;-1.690;2023-06-10T02:58:07;51.67;43.29;61.25;;
41518;Laerm;27249;48.094;-1.690;2023-06-10T03:00:33;46.74;41.82;58.09;;
41518;Laerm;27249;48.094;-1.690;2023-06-10T03:02:58;45.70;42.16;56.50;;
41518;Laerm;27249;48.094;-1.690;2023-06-10T03:05:27;46.57;42.03;54.41;;
41518;Laerm;27249;48.094;-1.690;2023-06-10T03:07:52;43.63;41.61;45.23;;
41518;Laerm;27249;48.094;-1.690;2023-06-10T03:10:18;50.16;42.03;60.67;;
41518;Laerm;27249;48.094;-1.690;2023-06-10T03:12:43;51.08;42.09;63.74;;
41518;Laerm;27249;48.094;-1.690;2023-06-10T03:15:08;48.87;42.16;61.19;;
41518;Laerm;27249;48.094;-1.690;2023-06-10T03:17:34;52.01;41.96;68.82;;
41518;Laerm;27249;48.094;-1.690;2023-06-10T03:19:59;53.09;42.41;69.10;;
41518;Laerm;27249;48.094;-1.690;2023-06-10T03:22:25;52.90;42.93;67.98;;
41518;Laerm;27249;48.094;-1.690;2023-06-10T03:24:50;49.00;42.53;63.38;;
41518;Laerm;27249;48.094;-1.690;2023-06-10T03:27:16;52.01;43.44;64.48;;
41518;Laerm;27249;48.094;-1.690;2023-06-10T03:29:41;53.29;43.60;68.22;;
41518;Laerm;27249;48.094;-1.690;2023-06-10T03:32:06;52.51;42.65;64.28;;
41518;Laerm;27249;48.094;-1.690;2023-06-10T03:34:32;52.21;43.04;67.92;;
41518;Laerm;27249;48.094;-1.690;2023-06-10T03:36:57;51.33;42.88;66.39;;
41518;Laerm;27249;48.094;-1.690;2023-06-10T03:39:22;49.18;42.71;59.68;;
41518;Laerm;27249;48.094;-1.690;2023-06-10T03:41:48;50.73;42.35;62.78;;
41518;Laerm;27249;48.094;-1.690;2023-06-10T03:44:14;51.34;42.76;62.75;;
41518;Laerm;27249;48.094;-1.690;2023-06-10T03:46:39;51.76;44.27;64.09;;
41518;Laerm;27249;48.094;-1.690;2023-06-10T03:49:05;53.86;44.23;63.37;;
41518;Laerm;27249;48.094;-1.690;2023-06-10T03:51:30;50.01;43.39;62.13;;
41518;Laerm;27249;48.094;-1.690;2023-06-10T03:53:55;50.78;43.81;59.10;;
41518;Laerm;27249;48.094;-1.690;2023-06-10T03:56:20;52.99;43.58;61.06;;
41518;Laerm;27249;48.094;-1.690;2023-06-10T03:58:46;52.69;43.44;59.98;;
41518;Laerm;27249;48.094;-1.690;2023-06-10T04:01:11;50.07;43.14;64.07;;
41518;Laerm;27249;48.094;-1.690;2023-06-10T04:03:38;52.87;44.47;63.24;;
41518;Laerm;27249;48.094;-1.690;2023-06-10T04:06:04;48.92;42.76;58.82;;
41518;Laerm;27249;48.094;-1.690;2023-06-10T04:08:29;49.19;42.59;62.18;;
41518;Laerm;27249;48.094;-1.690;2023-06-10T04:10:54;52.55;43.63;62.66;;
41518;Laerm;27249;48.094;-1.690;2023-06-10T04:13:19;48.99;43.19;62.23;;
41518;Laerm;27249;48.094;-1.690;2023-06-10T04:15:45;52.96;42.59;65.43;;
41518;Laerm;27249;48.094;-1.690;2023-06-10T04:18:10;51.64;42.65;62.09;;
41518;Laerm;27249;48.094;-1.690;2023-06-10T04:20:35;48.68;42.71;56.96;;
41518;Laerm;27249;48.094;-1.690;2023-06-10T04:23:01;52.83;43.09;64.59;;
41518;Laerm;27249;48.094;-1.690;2023-06-10T04:25:26;50.76;43.58;61.10;;
41518;Laerm;27249;48.094;-1.690;2023-06-10T04:27:52;49.80;43.04;59.84;;
41518;Laerm;27249;48.094;-1.690;2023-06-10T04:30:17;56.34;43.29;69.25;;
41518;Laerm;27249;48.094;-1.690;2023-06-10T04:32:43;53.11;43.24;65.29;;
41518;Laerm;27249;48.094;-1.690;2023-06-10T04:35:10;50.47;43.14;60.46;;
41518;Laerm;27249;48.094;-1.690;2023-06-10T04:37:36;49.17;43.29;59.90;;
41518;Laerm;27249;48.094;-1.690;2023-06-10T04:40:01;48.20;43.04;56.74;;
41518;Laerm;27249;48.094;-1.690;2023-06-10T04:42:28;47.45;42.76;58.71;;
41518;Laerm;27249;48.094;-1.690;2023-06-10T04:44:53;54.62;42.82;65.73;;
41518;Laerm;27249;48.094;-1.690;2023-06-10T04:47:18;52.09;43.49;65.29;;
41518;Laerm;27249;48.094;-1.690;2023-06-10T04:49:43;50.65;43.44;63.04;;
41518;Laerm;27249;48.094;-1.690;2023-06-10T04:52:09;51.83;43.72;64.45;;
41518;Laerm;27249;48.094;-1.690;2023-06-10T04:54:34;54.95;42.69;66.56;;
41518;Laerm;27249;48.094;-1.690;2023-06-10T04:57:00;50.95;43.58;61.85;;
41518;Laerm;27249;48.094;-1.690;2023-06-10T04:59:25;51.42;43.49;60.39;;
41518;Laerm;27249;48.094;-1.690;2023-06-10T05:01:50;53.38;43.49;61.17;;
41518;Laerm;27249;48.094;-1.690;2023-06-10T05:04:15;51.71;42.53;61.50;;
41518;Laerm;27249;48.094;-1.690;2023-06-10T05:06:42;51.45;42.88;60.41;;
41518;Laerm;27249;48.094;-1.690;2023-06-10T05:09:07;51.17;42.93;59.82;;
41518;Laerm;27249;48.094;-1.690;2023-06-10T05:11:32;50.97;44.11;62.25;;
41518;Laerm;27249;48.094;-1.690;2023-06-10T05:13:58;55.36;44.35;64.92;;
41518;Laerm;27249;48.094;-1.690;2023-06-10T05:16:23;51.71;44.43;59.18;;
41518;Laerm;27249;48.094;-1.690;2023-06-10T05:18:48;50.77;43.39;59.49;;
41518;Laerm;27249;48.094;-1.690;2023-06-10T05:21:15;51.34;43.44;60.59;;
41518;Laerm;27249;48.094;-1.690;2023-06-10T05:23:41;62.46;44.69;87.60;;
41518;Laerm;27249;48.094;-1.690;2023-06-10T05:26:06;54.70;44.73;67.96;;
41518;Laerm;27249;48.094;-1.690;2023-06-10T05:28:31;52.56;43.99;64.91;;
41518;Laerm;27249;48.094;-1.690;2023-06-10T05:30:56;52.89;43.04;69.34;;
41518;Laerm;27249;48.094;-1.690;2023-06-10T05:33:22;53.55;43.29;65.12;;
41518;Laerm;27249;48.094;-1.690;2023-06-10T05:35:47;51.97;43.24;63.38;;
41518;Laerm;27249;48.094;-1.690;2023-06-10T05:38:12;54.07;43.49;72.54;;
41518;Laerm;27249;48.094;-1.690;2023-06-10T05:40:37;53.64;43.04;66.49;;
41518;Laerm;27249;48.094;-1.690;2023-06-10T05:43:02;51.72;43.39;61.70;;
41518;Laerm;27249;48.094;-1.690;2023-06-10T05:45:28;52.98;44.35;61.18;;
41518;Laerm;27249;48.094;-1.690;2023-06-10T05:47:53;54.92;44.11;68.00;;
41518;Laerm;27249;48.094;-1.690;2023-06-10T05:50:18;53.06;44.27;62.18;;
41518;Laerm;27249;48.094;-1.690;2023-06-10T05:52:43;53.47;43.94;63.51;;
41518;Laerm;27249;48.094;-1.690;2023-06-10T05:55:09;53.85;45.72;73.11;;
41518;Laerm;27249;48.094;-1.690;2023-06-10T05:57:34;54.66;46.15;64.79;;
41518;Laerm;27249;48.094;-1.690;2023-06-10T06:00:00;53.50;42.98;63.78;;
41518;Laerm;27249;48.094;-1.690;2023-06-10T06:02:25;50.27;43.19;59.14;;
41518;Laerm;27249;48.094;-1.690;2023-06-10T06:04:50;54.81;43.68;65.53;;
41518;Laerm;27249;48.094;-1.690;2023-06-10T06:07:15;54.50;44.23;62.72;;
41518;Laerm;27249;48.094;-1.690;2023-06-10T06:09:41;52.29;44.90;61.91;;
41518;Laerm;27249;48.094;-1.690;2023-06-10T06:12:06;53.90;44.39;63.44;;
41518;Laerm;27249;48.094;-1.690;2023-06-10T06:14:32;53.28;45.77;61.35;;
41518;Laerm;27249;48.094;-1.690;2023-06-10T06:16:57;55.35;45.01;64.11;;
41518;Laerm;27249;48.094;-1.690;2023-06-10T06:19:23;54.81;48.08;61.74;;
41518;Laerm;27249;48.094;-1.690;2023-06-10T06:21:48;53.95;43.99;63.85;;
41518;Laerm;27249;48.094;-1.690;2023-06-10T06:24:14;53.89;45.11;62.75;;
41518;Laerm;27249;48.094;-1.690;2023-06-10T06:26:39;56.39;47.18;62.95;;
41518;Laerm;27249;48.094;-1.690;2023-06-10T06:29:04;53.86;47.26;61.36;;
41518;Laerm;27249;48.094;-1.690;2023-06-10T06:31:30;56.56;46.84;66.48;;
41518;Laerm;27249;48.094;-1.690;2023-06-10T06:33:55;56.22;48.88;62.17;;
41518;Laerm;27249;48.094;-1.690;2023-06-10T06:36:20;53.33;46.35;60.16;;
41518;Laerm;27249;48.094;-1.690;2023-06-10T06:38:46;57.97;48.02;78.99;;
41518;Laerm;27249;48.094;-1.690;2023-06-10T06:41:12;57.23;48.43;66.86;;
41518;Laerm;27249;48.094;-1.690;2023-06-10T06:43:37;54.75;45.30;62.88;;
41518;Laerm;27249;48.094;-1.690;2023-06-10T06:46:02;55.99;46.10;64.57;;
41518;Laerm;27249;48.094;-1.690;2023-06-10T06:48:27;55.29;46.18;60.70;;
41518;Laerm;27249;48.094;-1.690;2023-06-10T06:50:53;55.41;46.57;61.33;;
41518;Laerm;27249;48.094;-1.690;2023-06-10T06:53:18;57.08;48.81;68.22;;
41518;Laerm;27249;48.094;-1.690;2023-06-10T06:55:43;56.12;46.73;64.45;;
41518;Laerm;27249;48.094;-1.690;2023-06-10T06:58:08;56.68;49.24;75.92;;
41518;Laerm;27249;48.094;-1.690;2023-06-10T07:00:34;57.42;46.87;68.84;;
41518;Laerm;27249;48.094;-1.690;2023-06-10T07:02:59;55.41;46.05;63.58;;
41518;Laerm;27249;48.094;-1.690;2023-06-10T07:05:24;55.37;48.95;67.11;;
41518;Laerm;27249;48.094;-1.690;2023-06-10T07:07:52;54.86;47.40;66.95;;
41518;Laerm;27249;48.094;-1.690;2023-06-10T07:10:20;55.42;46.43;71.76;;
41518;Laerm;27249;48.094;-1.690;2023-06-10T07:12:46;56.63;46.05;71.46;;
41518;Laerm;27249;48.094;-1.690;2023-06-10T07:15:12;56.60;47.20;67.16;;
41518;Laerm;27249;48.094;-1.690;2023-06-10T07:17:37;54.25;44.69;66.48;;
41518;Laerm;27249;48.094;-1.690;2023-06-10T07:20:02;55.91;46.73;65.74;;
41518;Laerm;27249;48.094;-1.690;2023-06-10T07:22:28;56.80;48.32;65.30;;
41518;Laerm;27249;48.094;-1.690;2023-06-10T07:24:53;57.86;49.62;73.16;;
41518;Laerm;27249;48.094;-1.690;2023-06-10T07:27:19;55.91;46.50;65.43;;
41518;Laerm;27249;48.094;-1.690;2023-06-10T07:29:45;55.65;47.88;63.60;;
41518;Laerm;27249;48.094;-1.690;2023-06-10T07:32:10;55.50;47.50;65.99;;
41518;Laerm;27249;48.094;-1.690;2023-06-10T07:34:35;55.96;46.28;62.55;;
41518;Laerm;27249;48.094;-1.690;2023-06-10T07:37:00;55.16;47.79;62.04;;
41518;Laerm;27249;48.094;-1.690;2023-06-10T07:39:25;55.51;48.00;65.25;;
41518;Laerm;27249;48.094;-1.690;2023-06-10T07:41:51;54.44;48.03;61.19;;
41518;Laerm;27249;48.094;-1.690;2023-06-10T07:44:18;53.75;48.52;60.38;;
41518;Laerm;27249;48.094;-1.690;2023-06-10T07:46:43;55.89;48.08;62.82;;
41518;Laerm;27249;48.094;-1.690;2023-06-10T07:49:09;57.95;50.36;68.82;;
41518;Laerm;27249;48.094;-1.690;2023-06-10T07:51:34;56.87;50.91;62.96;;
41518;Laerm;27249;48.094;-1.690;2023-06-10T07:54:00;56.84;49.23;70.95;;
41518;Laerm;27249;48.094;-1.690;2023-06-10T07:56:25;56.12;50.42;62.62;;
41518;Laerm;27249;48.094;-1.690;2023-06-10T07:58:51;57.11;49.89;64.39;;
41518;Laerm;27249;48.094;-1.690;2023-06-10T08:01:16;56.31;45.72;61.84;;
41518;Laerm;27249;48.094;-1.690;2023-06-10T08:03:42;56.54;49.27;62.79;;
41518;Laerm;27249;48.094;-1.690;2023-06-10T08:06:07;54.89;48.63;63.60;;
41518;Laerm;27249;48.094;-1.690;2023-06-10T08:08:32;56.65;49.88;64.92;;
41518;Laerm;27249;48.094;-1.690;2023-06-10T08:10:59;56.61;51.22;62.45;;
41518;Laerm;27249;48.094;-1.690;2023-06-10T08:13:24;55.74;46.13;69.48;;
41518;Laerm;27249;48.094;-1.690;2023-06-10T08:15:50;55.11;49.03;63.51;;
41518;Laerm;27249;48.094;-1.690;2023-06-10T08:18:15;56.87;47.77;64.68;;
41518;Laerm;27249;48.094;-1.690;2023-06-10T08:20:41;56.94;50.75;66.39;;
41518;Laerm;27249;48.094;-1.690;2023-06-10T08:23:06;56.39;49.35;63.54;;
41518;Laerm;27249;48.094;-1.690;2023-06-10T08:25:31;56.53;49.79;65.44;;
41518;Laerm;27249;48.094;-1.690;2023-06-10T08:27:56;55.72;48.49;69.30;;
41518;Laerm;27249;48.094;-1.690;2023-06-10T08:30:22;56.85;47.88;65.67;;
41518;Laerm;27249;48.094;-1.690;2023-06-10T08:32:48;56.07;48.51;66.06;;
41518;Laerm;27249;48.094;-1.690;2023-06-10T08:35:13;55.81;49.59;61.78;;
41518;Laerm;27249;48.094;-1.690;2023-06-10T08:37:38;55.52;49.50;60.99;;
41518;Laerm;27249;48.094;-1.690;2023-06-10T08:40:03;55.85;48.39;64.32;;
41518;Laerm;27249;48.094;-1.690;2023-06-10T08:44:56;55.87;49.25;61.99;;
41518;Laerm;27249;48.094;-1.690;2023-06-10T08:47:22;55.94;49.07;64.04;;
41518;Laerm;27249;48.094;-1.690;2023-06-10T08:49:47;54.67;48.39;60.22;;
41518;Laerm;27249;48.094;-1.690;2023-06-10T08:52:17;56.52;48.98;61.78;;
41518;Laerm;27249;48.094;-1.690;2023-06-10T08:54:43;55.41;49.46;61.00;;
41518;Laerm;27249;48.094;-1.690;2023-06-10T08:57:12;58.14;51.47;67.29;;
41518;Laerm;27249;48.094;-1.690;2023-06-10T08:59:38;56.59;49.53;70.47;;
41518;Laerm;27249;48.094;-1.690;2023-06-10T09:02:04;56.48;50.27;65.32;;
41518;Laerm;27249;48.094;-1.690;2023-06-10T09:04:29;56.46;50.65;62.14;;
41518;Laerm;27249;48.094;-1.690;2023-06-10T09:06:55;55.71;49.24;60.96;;
41518;Laerm;27249;48.094;-1.690;2023-06-10T09:09:21;56.21;48.60;62.69;;
41518;Laerm;27249;48.094;-1.690;2023-06-10T09:11:47;55.44;49.49;63.24;;
41518;Laerm;27249;48.094;-1.690;2023-06-10T09:14:13;56.43;50.91;64.76;;
41518;Laerm;27249;48.094;-1.690;2023-06-10T09:16:38;57.67;50.09;65.66;;
41518;Laerm;27249;48.094;-1.690;2023-06-10T09:19:04;57.40;49.58;68.49;;
41518;Laerm;27249;48.094;-1.690;2023-06-10T09:21:33;56.00;49.57;62.31;;
41518;Laerm;27249;48.094;-1.690;2023-06-10T09:23:58;56.26;47.28;66.98;;
41518;Laerm;27249;48.094;-1.690;2023-06-10T09:26:26;55.79;48.15;63.82;;
41518;Laerm;27249;48.094;-1.690;2023-06-10T09:28:57;54.99;48.69;60.59;;
41518;Laerm;27249;48.094;-1.690;2023-06-10T09:31:22;57.17;50.02;65.57;;
41518;Laerm;27249;48.094;-1.690;2023-06-10T09:33:48;55.80;47.30;63.63;;
41518;Laerm;27249;48.094;-1.690;2023-06-10T09:36:21;56.69;49.65;63.00;;
41518;Laerm;27249;48.094;-1.690;2023-06-10T09:38:46;56.44;49.08;65.87;;
41518;Laerm;27249;48.094;-1.690;2023-06-10T09:41:14;56.34;50.78;68.98;;
41518;Laerm;27249;48.094;-1.690;2023-06-10T09:43:41;55.87;49.06;61.58;;
41518;Laerm;27249;48.094;-1.690;2023-06-10T09:46:07;55.39;49.29;66.14;;
41518;Laerm;27249;48.094;-1.690;2023-06-10T09:48:41;55.60;47.87;64.47;;
41518;Laerm;27249;48.094;-1.690;2023-06-10T09:51:08;57.29;50.10;63.04;;
41518;Laerm;27249;48.094;-1.690;2023-06-10T09:53:34;56.49;50.43;64.09;;
41518;Laerm;27249;48.094;-1.690;2023-06-10T09:55:59;56.14;50.22;62.51;;
41518;Laerm;27249;48.094;-1.690;2023-06-10T09:58:37;55.23;47.52;64.05;;
41518;Laerm;27249;48.094;-1.690;2023-06-10T10:01:08;55.49;48.64;62.43;;
41518;Laerm;27249;48.094;-1.690;2023-06-10T10:03:33;56.60;51.05;64.83;;
41518;Laerm;27249;48.094;-1.690;2023-06-10T10:05:59;56.01;48.93;62.27;;
41518;Laerm;27249;48.094;-1.690;2023-06-10T10:08:25;56.52;50.69;64.28;;
41518;Laerm;27249;48.094;-1.690;2023-06-10T10:10:50;55.02;48.48;61.85;;
41518;Laerm;27249;48.094;-1.690;2023-06-10T10:13:16;55.82;51.03;61.15;;
41518;Laerm;27249;48.094;-1.690;2023-06-10T10:15:41;55.86;50.31;62.70;;
41518;Laerm;27249;48.094;-1.690;2023-06-10T10:18:09;56.42;49.30;63.20;;
41518;Laerm;27249;48.094;-1.690;2023-06-10T10:20:34;56.41;50.26;67.37;;
41518;Laerm;27249;48.094;-1.690;2023-06-10T10:23:02;55.90;48.25;62.69;;
41518;Laerm;27249;48.094;-1.690;2023-06-10T10:25:40;59.28;49.94;70.83;;
41518;Laerm;27249;48.094;-1.690;2023-06-10T10:28:10;55.84;50.25;62.34;;
41518;Laerm;27249;48.094;-1.690;2023-06-10T10:30:45;58.93;53.29;65.37;;
41518;Laerm;27249;48.094;-1.690;2023-06-10T10:35:36;57.06;50.34;63.20;;
41518;Laerm;27249;48.094;-1.690;2023-06-10T10:38:02;62.76;53.43;76.28;;
41518;Laerm;27249;48.094;-1.690;2023-06-10T10:40:28;59.23;52.24;65.23;;
41518;Laerm;27249;48.094;-1.690;2023-06-10T10:42:55;66.11;55.43;72.94;;
41518;Laerm;27249;48.094;-1.690;2023-06-10T10:45:21;64.03;59.97;67.93;;
41518;Laerm;27249;48.094;-1.690;2023-06-10T10:47:46;62.91;55.70;69.02;;
41518;Laerm;27249;48.094;-1.690;2023-06-10T10:50:17;64.39;55.68;69.75;;
41518;Laerm;27249;48.094;-1.690;2023-06-10T10:52:56;69.40;62.76;77.54;;
41518;Laerm;27249;48.094;-1.690;2023-06-10T10:55:23;70.46;54.68;83.88;;
41518;Laerm;27249;48.094;-1.690;2023-06-10T10:57:56;66.05;58.42;77.17;;
41518;Laerm;27249;48.094;-1.690;2023-06-10T11:00:31;66.26;59.38;72.67;;
41518;Laerm;27249;48.094;-1.690;2023-06-10T11:05:38;61.68;56.03;67.09;;
41518;Laerm;27249;48.094;-1.690;2023-06-10T11:08:04;60.04;51.31;65.13;;
41518;Laerm;27249;48.094;-1.690;2023-06-10T11:12:56;59.38;51.29;65.90;;
41518;Laerm;27249;48.094;-1.690;2023-06-10T11:15:25;59.85;49.12;66.05;;
41518;Laerm;27249;48.094;-1.690;2023-06-10T11:20:41;59.26;50.93;69.78;;
41518;Laerm;27249;48.094;-1.690;2023-06-10T11:23:07;57.84;50.59;68.70;;
41518;Laerm;27249;48.094;-1.690;2023-06-10T11:25:38;60.50;52.42;80.71;;
41518;Laerm;27249;48.094;-1.690;2023-06-10T11:28:04;56.79;51.35;61.92;;
41518;Laerm;27249;48.094;-1.690;2023-06-10T11:30:42;58.12;46.82;68.27;;
41518;Laerm;27249;48.094;-1.690;2023-06-10T11:33:07;57.04;50.28;65.41;;
41518;Laerm;27249;48.094;-1.690;2023-06-10T11:35:32;57.76;52.24;63.42;;
41518;Laerm;27249;48.094;-1.690;2023-06-10T11:37:58;57.66;51.47;62.56;;
41518;Laerm;27249;48.094;-1.690;2023-06-10T11:40:24;55.46;45.72;62.46;;
41518;Laerm;27249;48.094;-1.690;2023-06-10T11:42:49;57.15;52.35;67.37;;
41518;Laerm;27249;48.094;-1.690;2023-06-10T11:45:15;56.70;46.82;64.00;;
41518;Laerm;27249;48.094;-1.690;2023-06-10T11:47:42;56.20;48.12;64.96;;
41518;Laerm;27249;48.094;-1.690;2023-06-10T11:50:27;62.17;47.95;85.92;;
41518;Laerm;27249;48.094;-1.690;2023-06-10T11:52:52;56.58;47.14;66.43;;
41518;Laerm;27249;48.094;-1.690;2023-06-10T11:55:20;55.59;47.52;62.36;;
41518;Laerm;27249;48.094;-1.690;2023-06-10T11:57:46;55.72;49.63;62.17;;
41518;Laerm;27249;48.094;-1.690;2023-06-10T12:00:11;54.79;46.84;61.22;;
41518;Laerm;27249;48.094;-1.690;2023-06-10T12:02:36;55.90;47.83;62.92;;
41518;Laerm;27249;48.094;-1.690;2023-06-10T12:05:12;54.35;45.07;65.17;;
41518;Laerm;27249;48.094;-1.690;2023-06-10T12:07:37;55.64;47.36;68.38;;
41518;Laerm;27249;48.094;-1.690;2023-06-10T12:10:03;55.48;46.62;63.48;;
41518;Laerm;27249;48.094;-1.690;2023-06-10T12:12:28;55.44;47.81;60.61;;
41518;Laerm;27249;48.094;-1.690;2023-06-10T12:14:54;56.46;49.50;65.52;;
41518;Laerm;27249;48.094;-1.690;2023-06-10T12:17:21;55.06;46.82;72.52;;
41518;Laerm;27249;48.094;-1.690;2023-06-10T12:19:48;55.80;44.47;62.09;;
41518;Laerm;27249;48.094;-1.690;2023-06-10T12:22:13;57.36;50.04;68.62;;
41518;Laerm;27249;48.094;-1.690;2023-06-10T12:27:24;55.43;48.54;61.38;;
41518;Laerm;27249;48.094;-1.690;2023-06-10T12:29:53;55.86;46.93;63.08;;
41518;Laerm;27249;48.094;-1.690;2023-06-10T12:32:34;55.54;50.16;62.55;;
41518;Laerm;27249;48.094;-1.690;2023-06-10T12:35:03;56.25;48.73;67.53;;
41518;Laerm;27249;48.094;-1.690;2023-06-10T12:37:29;55.83;49.52;63.54;;
41518;Laerm;27249;48.094;-1.690;2023-06-10T12:39:55;56.28;49.79;66.26;;
41518;Laerm;27249;48.094;-1.690;2023-06-10T12:42:22;55.04;46.20;60.31;;
41518;Laerm;27249;48.094;-1.690;2023-06-10T12:44:47;56.29;47.67;61.34;;
41518;Laerm;27249;48.094;-1.690;2023-06-10T12:47:18;55.91;49.06;61.65;;
41518;Laerm;27249;48.094;-1.690;2023-06-10T12:49:43;55.91;45.83;74.28;;
41518;Laerm;27249;48.094;-1.690;2023-06-10T12:52:08;55.84;49.20;61.80;;
41518;Laerm;27249;48.094;-1.690;2023-06-10T12:54:33;55.85;48.24;62.50;;
41518;Laerm;27249;48.094;-1.690;2023-06-10T12:56:59;56.07;48.08;63.26;;
41518;Laerm;27249;48.094;-1.690;2023-06-10T12:59:24;55.62;49.65;66.19;;
41518;Laerm;27249;48.094;-1.690;2023-06-10T13:01:53;55.07;44.62;62.83;;
41518;Laerm;27249;48.094;-1.690;2023-06-10T13:04:18;54.35;47.54;63.72;;
41518;Laerm;27249;48.094;-1.690;2023-06-10T13:06:44;55.85;47.30;65.12;;
41518;Laerm;27249;48.094;-1.690;2023-06-10T13:09:09;55.51;49.02;63.24;;
41518;Laerm;27249;48.094;-1.690;2023-06-10T13:11:35;54.90;48.67;64.46;;
41518;Laerm;27249;48.094;-1.690;2023-06-10T13:14:01;55.89;49.18;69.02;;
41518;Laerm;27249;48.094;-1.690;2023-06-10T13:16:27;55.38;47.93;63.61;;
41518;Laerm;27249;48.094;-1.690;2023-06-10T13:18:53;55.06;49.30;63.65;;
41518;Laerm;27249;48.094;-1.690;2023-06-10T13:21:18;55.71;48.73;64.24;;
41518;Laerm;27249;48.094;-1.690;2023-06-10T13:23:44;56.45;49.92;68.48;;
41518;Laerm;27249;48.094;-1.690;2023-06-10T13:26:09;56.18;49.93;65.63;;
41518;Laerm;27249;48.094;-1.690;2023-06-10T13:28:34;55.60;48.42;67.86;;
41518;Laerm;27249;48.094;-1.690;2023-06-10T13:31:00;56.40;47.59;66.08;;
41518;Laerm;27249;48.094;-1.690;2023-06-10T13:33:25;57.50;48.90;76.59;;
41518;Laerm;27249;48.094;-1.690;2023-06-10T13:35:50;54.58;45.23;62.27;;
41518;Laerm;27249;48.094;-1.690;2023-06-10T13:38:15;56.68;50.04;64.80;;
41518;Laerm;27249;48.094;-1.690;2023-06-10T13:40:41;56.09;50.13;66.68;;
41518;Laerm;27249;48.094;-1.690;2023-06-10T13:43:06;55.53;46.73;62.62;;
41518;Laerm;27249;48.094;-1.690;2023-06-10T13:45:31;56.12;50.14;64.28;;
41518;Laerm;27249;48.094;-1.690;2023-06-10T13:47:56;56.29;51.66;68.59;;